Time;durP1;ratioP1;P1;durP2;ratioP2;P2;SDS_P1;SDS_P2;PMS_P1;PMS_P2;Temp;Humidity;BMP_temperature;BMP_pressure;BME280_temperature;BME280_humidity;BME280_pressure;Samples;Min_cycle;Max_cycle;Signal;HPM_P1;HPM_P2
2023/06/29 00:00:22;;;;;;;5.20;3.20;;;;;;;12.56;100.00;100671.02;107484;1249;59039;-71
2023/06/29 00:03:11;;;;;;;6.00;4.00;;;;;;;12.61;100.00;100670.31;107445;1244;62074;-71
2023/06/29 00:05:42;;;;;;;4.80;2.90;;;;;;;12.65;100.00;100668.23;107295;1244;63426;-72
2023/06/29 00:08:11;;;;;;;6.10;3.30;;;;;;;12.70;100.00;100667.48;107473;1242;60862;-70
2023/06/29 00:10:41;;;;;;;4.30;3.20;;;;;;;12.75;100.00;100669.01;107207;1241;70446;-68
2023/06/29 00:13:10;;;;;;;6.30;3.20;;;;;;;12.77;100.00;100670.23;107341;1242;63671;-70
2023/06/29 00:15:39;;;;;;;6.60;3.70;;;;;;;12.79;100.00;100670.56;107231;1253;62994;-70
2023/06/29 00:18:09;;;;;;;6.80;4.10;;;;;;;12.78;100.00;100665.63;107337;1242;58426;-69
2023/06/29 00:20:39;;;;;;;7.70;4.30;;;;;;;12.76;100.00;100667.67;107215;1244;62255;-70
2023/06/29 00:23:09;;;;;;;9.30;3.90;;;;;;;12.74;100.00;100670.27;107447;1252;62001;-70
2023/06/29 00:25:39;;;;;;;7.70;4.80;;;;;;;12.67;100.00;100663.65;107381;1250;69649;-69
2023/06/29 00:28:08;;;;;;;6.60;4.50;;;;;;;12.63;100.00;100664.02;107414;1249;72630;-69
2023/06/29 00:30:37;;;;;;;9.20;4.60;;;;;;;12.58;100.00;100666.34;107307;1242;58931;-69
2023/06/29 00:33:06;;;;;;;6.30;4.20;;;;;;;12.54;100.00;100670.88;107883;1247;59101;-70
2023/06/29 00:35:36;;;;;;;6.80;3.60;;;;;;;12.51;100.00;100667.67;107788;1235;73064;-72
2023/06/29 00:38:04;;;;;;;5.20;3.40;;;;;;;12.48;100.00;100665.27;107967;1235;72574;-70
2023/06/29 00:40:34;;;;;;;5.30;3.30;;;;;;;12.44;100.00;100665.23;107544;1244;59458;-70
2023/06/29 00:43:03;;;;;;;6.00;3.80;;;;;;;12.40;100.00;100661.48;107972;1240;63180;-70
2023/06/29 00:45:32;;;;;;;5.10;3.80;;;;;;;12.37;100.00;100659.48;108007;1238;58886;-69
2023/06/29 00:48:01;;;;;;;3.80;3.40;;;;;;;12.34;100.00;100655.50;107708;1247;57416;-69
2023/06/29 00:50:31;;;;;;;5.90;3.80;;;;;;;12.30;100.00;100652.39;107876;1245;62397;-71
2023/06/29 00:53:00;;;;;;;4.80;3.30;;;;;;;12.28;100.00;100651.17;107871;1238;61011;-70
2023/06/29 00:55:30;;;;;;;4.00;3.10;;;;;;;12.28;100.00;100651.70;108058;1247;59965;-70
2023/06/29 00:57:59;;;;;;;5.70;3.90;;;;;;;12.28;100.00;100649.90;107967;1238;62991;-72
2023/06/29 01:00:28;;;;;;;8.30;4.30;;;;;;;12.29;100.00;100651.97;107912;1238;59164;-73
2023/06/29 01:02:58;;;;;;;6.40;3.30;;;;;;;12.29;100.00;100645.46;107980;1238;60712;-71
2023/06/29 01:05:33;;;;;;;5.90;4.20;;;;;;;12.31;100.00;100644.80;108067;1239;62552;-71
2023/06/29 01:08:18;;;;;;;9.40;4.70;;;;;;;12.32;100.00;100642.63;107696;1235;72187;-71
2023/06/29 01:10:49;;;;;;;8.80;4.40;;;;;;;12.37;100.00;100640.46;107919;1238;60349;-72
2023/06/29 01:13:19;;;;;;;10.30;4.20;;;;;;;12.32;100.00;100641.92;106965;1235;703687;-71
2023/06/29 01:15:49;;;;;;;7.50;4.00;;;;;;;12.28;100.00;100637.19;107839;1247;63270;-71
2023/06/29 01:18:23;;;;;;;6.10;4.10;;;;;;;12.24;100.00;100635.42;107794;1246;60743;-72
2023/06/29 01:20:53;;;;;;;4.50;3.70;;;;;;;12.19;100.00;100635.95;107755;1235;73915;-70
2023/06/29 01:23:28;;;;;;;7.90;4.20;;;;;;;12.16;100.00;100633.60;107769;1245;72641;-70
2023/06/29 01:25:57;;;;;;;8.90;4.20;;;;;;;12.12;100.00;100636.19;107640;1242;70970;-71
2023/06/29 01:28:28;;;;;;;8.50;4.30;;;;;;;12.09;100.00;100632.98;107872;1239;63694;-70
2023/06/29 01:31:02;;;;;;;7.00;4.40;;;;;;;12.09;100.00;100631.88;107914;1238;62112;-71
2023/06/29 01:33:33;;;;;;;7.60;4.40;;;;;;;12.18;100.00;100632.95;107838;1245;61605;-73
2023/06/29 01:36:14;;;;;;;7.30;4.00;;;;;;;12.16;100.00;100629.91;107829;1238;63668;-71
2023/06/29 01:38:51;;;;;;;6.60;4.10;;;;;;;12.11;100.00;100630.84;107843;1246;61412;-71
2023/06/29 01:41:23;;;;;;;7.20;4.00;;;;;;;12.08;100.00;100632.64;107957;1241;61730;-71
2023/06/29 01:43:53;;;;;;;8.00;4.50;;;;;;;12.07;100.00;100632.90;107927;1238;63650;-71
2023/06/29 01:46:22;;;;;;;5.90;3.80;;;;;;;12.07;100.00;100631.34;107969;1238;58828;-71
2023/06/29 01:48:53;;;;;;;7.90;3.90;;;;;;;12.08;100.00;100631.47;107940;1239;59116;-70
2023/06/29 01:51:22;;;;;;;5.70;3.90;;;;;;;12.13;100.00;100631.37;108112;1239;74674;-72
2023/06/29 01:53:51;;;;;;;8.00;3.90;;;;;;;12.13;100.00;100628.80;108463;1240;72545;-71
2023/06/29 01:56:20;;;;;;;6.60;3.90;;;;;;;12.13;100.00;100625.95;108735;1241;71197;-71
2023/06/29 01:58:49;;;;;;;7.80;4.00;;;;;;;12.15;100.00;100629.33;108355;1240;63628;-70
2023/06/29 02:01:18;;;;;;;9.40;3.80;;;;;;;12.16;100.00;100630.33;108380;1247;59014;-71
2023/06/29 02:03:48;;;;;;;8.10;3.90;;;;;;;12.16;100.00;100632.51;108286;1239;61246;-70
2023/06/29 02:06:17;;;;;;;10.50;4.20;;;;;;;12.16;100.00;100632.70;108561;1239;63335;-71
2023/06/29 02:08:48;;;;;;;8.90;3.90;;;;;;;12.17;100.00;100632.84;108354;1247;72188;-71
2023/06/29 02:11:17;;;;;;;7.70;4.20;;;;;;;12.18;100.00;100632.92;108091;1235;70675;-71
2023/06/29 02:13:47;;;;;;;7.40;3.80;;;;;;;12.16;100.00;100629.38;108058;1238;63081;-71
2023/06/29 02:16:16;;;;;;;8.50;4.60;;;;;;;12.16;100.00;100628.38;107953;1245;58955;-70
2023/06/29 02:18:45;;;;;;;11.10;4.10;;;;;;;12.12;100.00;100625.02;108077;1235;59187;-70
2023/06/29 02:21:14;;;;;;;11.70;4.30;;;;;;;12.08;100.00;100627.65;107959;1247;62171;-71
2023/06/29 02:23:43;;;;;;;6.60;4.10;;;;;;;12.16;100.00;100627.17;107787;1247;61163;-71
2023/06/29 02:26:12;;;;;;;8.80;4.00;;;;;;;12.13;100.00;100629.15;108004;1247;59477;-71
2023/06/29 02:28:41;;;;;;;10.50;4.20;;;;;;;12.13;100.00;100628.06;107775;1247;63152;-71
2023/06/29 02:31:10;;;;;;;6.20;3.90;;;;;;;12.13;100.00;100625.44;107990;1235;58320;-71
2023/06/29 02:33:39;;;;;;;6.50;3.70;;;;;;;12.12;100.00;100628.37;107961;1239;58311;-70
2023/06/29 02:36:09;;;;;;;6.80;3.80;;;;;;;12.12;100.00;100632.52;107984;1247;62295;-71
2023/06/29 02:38:38;;;;;;;10.10;4.40;;;;;;;12.12;100.00;100633.05;107981;1238;60931;-70
2023/06/29 02:41:07;;;;;;;9.50;3.70;;;;;;;12.11;100.00;100635.89;107942;1235;71423;-71
2023/06/29 02:43:36;;;;;;;5.30;3.90;;;;;;;12.11;100.00;100635.02;107992;1235;74008;-72
2023/06/29 02:46:05;;;;;;;7.70;3.90;;;;;;;12.12;100.00;100636.89;107993;1247;63691;-71
2023/06/29 02:48:36;;;;;;;10.40;3.70;;;;;;;12.17;100.00;100640.86;108012;1240;59013;-71
2023/06/29 02:51:07;;;;;;;6.80;4.00;;;;;;;12.16;100.00;100639.01;107932;1247;62207;-72
2023/06/29 02:53:36;;;;;;;6.00;3.70;;;;;;;12.16;100.00;100641.48;107959;1246;61896;-71
2023/06/29 02:56:05;;;;;;;6.90;3.70;;;;;;;12.18;100.00;100640.22;107921;1238;70795;-71
2023/06/29 02:58:35;;;;;;;5.40;3.40;;;;;;;12.19;100.00;100637.04;108018;1235;75167;-74
2023/06/29 03:01:05;;;;;;;5.50;3.50;;;;;;;12.19;100.00;100640.50;107974;1244;64275;-73
2023/06/29 03:03:35;;;;;;;3.50;3.00;;;;;;;12.22;100.00;100639.39;107969;1239;62084;-72
2023/06/29 03:06:04;;;;;;;8.70;4.30;;;;;;;12.37;100.00;100641.88;108151;1235;73509;-71
2023/06/29 03:08:33;;;;;;;7.30;3.40;;;;;;;12.53;100.00;100640.58;107905;1237;71687;-71
2023/06/29 03:11:01;;;;;;;4.70;3.40;;;;;;;12.53;100.00;100639.84;107706;1241;70563;-72
2023/06/29 03:13:31;;;;;;;6.50;3.80;;;;;;;12.57;100.00;100642.66;108019;1236;73640;-71
2023/06/29 03:16:01;;;;;;;7.30;3.50;;;;;;;12.58;100.00;100644.21;107998;1238;63286;-70
2023/06/29 03:18:30;;;;;;;4.90;3.80;;;;;;;12.58;100.00;100641.73;108086;1240;61085;-70
2023/06/29 03:20:59;;;;;;;6.70;3.80;;;;;;;12.54;100.00;100641.90;107975;1238;73108;-72
2023/06/29 03:23:28;;;;;;;7.70;4.80;;;;;;;12.55;100.00;100644.39;107993;1240;64195;-71
2023/06/29 03:25:57;;;;;;;7.40;3.40;;;;;;;12.56;100.00;100646.80;107980;1235;71248;-71
2023/06/29 03:28:26;;;;;;;6.30;3.40;;;;;;;12.58;100.00;100649.05;108131;1235;74472;-71
2023/06/29 03:30:55;;;;;;;5.80;3.10;;;;;;;12.54;100.00;100645.90;108067;1242;62496;-72
2023/06/29 03:33:24;;;;;;;5.60;3.40;;;;;;;12.48;100.00;100650.22;107982;1247;62237;-72
2023/06/29 03:35:53;;;;;;;6.60;3.60;;;;;;;12.45;100.00;100649.45;108042;1246;64784;-70
2023/06/29 03:38:22;;;;;;;3.90;3.10;;;;;;;12.43;100.00;100653.02;108088;1236;61153;-71
2023/06/29 03:40:51;;;;;;;4.20;3.20;;;;;;;12.47;100.00;100650.27;108079;1246;69994;-71
2023/06/29 03:43:20;;;;;;;5.30;2.80;;;;;;;12.52;100.00;100653.57;108168;1239;74597;-72
2023/06/29 03:45:49;;;;;;;5.70;3.50;;;;;;;12.60;100.00;100653.28;108099;1240;62932;-70
2023/06/29 03:48:20;;;;;;;3.90;2.90;;;;;;;12.67;100.00;100657.91;108142;1235;61263;-72
2023/06/29 03:50:49;;;;;;;5.00;3.50;;;;;;;12.73;100.00;100652.19;108150;1246;62769;-72
2023/06/29 03:53:18;;;;;;;9.10;3.30;;;;;;;12.81;100.00;100653.64;108153;1236;61978;-70
2023/06/29 03:55:48;;;;;;;7.10;3.10;;;;;;;12.91;100.00;100648.58;108059;1238;59928;-71
2023/06/29 03:58:17;;;;;;;4.30;3.20;;;;;;;13.01;100.00;100642.36;107989;1235;63237;-72
2023/06/29 04:00:46;;;;;;;5.80;3.10;;;;;;;13.09;100.00;100636.95;107990;1239;61335;-71
2023/06/29 04:03:15;;;;;;;5.60;3.70;;;;;;;13.17;100.00;100644.88;108025;1238;58873;-73
2023/06/29 04:05:44;;;;;;;5.60;3.40;;;;;;;13.27;100.00;100645.81;108045;1239;62110;-73
2023/06/29 04:08:13;;;;;;;8.00;3.60;;;;;;;13.38;100.00;100644.70;107991;1238;71279;-72
2023/06/29 04:10:42;;;;;;;6.10;3.30;;;;;;;13.46;100.00;100646.59;107976;1241;70685;-71
2023/06/29 04:13:12;;;;;;;7.60;3.30;;;;;;;13.55;100.00;100643.29;107992;1239;73134;-71
2023/06/29 04:15:44;;;;;;;6.00;3.70;;;;;;;13.64;100.00;100644.88;107886;1242;63321;-73
2023/06/29 04:18:13;;;;;;;8.30;3.50;;;;;;;13.72;100.00;100639.65;107772;1244;59608;-72
2023/06/29 04:20:42;;;;;;;6.00;3.50;;;;;;;13.80;100.00;100639.86;108030;1239;63555;-73
2023/06/29 04:23:16;;;;;;;6.60;3.70;;;;;;;13.87;100.00;100637.14;108214;1236;71779;-71
2023/06/29 04:25:46;;;;;;;5.50;3.20;;;;;;;13.94;100.00;100642.67;107828;1238;70806;-71
2023/06/29 04:28:15;;;;;;;9.20;3.50;;;;;;;13.98;100.00;100642.83;108046;1235;66391;-71
2023/06/29 04:30:44;;;;;;;8.50;3.10;;;;;;;14.02;100.00;100643.62;108017;1237;58924;-71
2023/06/29 04:33:15;;;;;;;8.10;3.00;;;;;;;14.09;100.00;100641.69;108041;1237;59002;-71
2023/06/29 04:35:44;;;;;;;5.60;4.40;;;;;;;14.16;100.00;100643.13;108054;1238;62918;-70
2023/06/29 04:38:14;;;;;;;5.60;3.40;;;;;;;14.28;100.00;100647.30;108068;1236;61791;-70
2023/06/29 04:40:43;;;;;;;4.60;3.10;;;;;;;14.37;100.00;100644.31;108074;1238;59541;-71
2023/06/29 04:43:13;;;;;;;4.10;2.50;;;;;;;14.46;100.00;100645.05;107944;1236;72591;-71
2023/06/29 04:45:42;;;;;;;5.00;2.70;;;;;;;14.54;100.00;100641.20;107874;1236;59153;-71
2023/06/29 04:48:12;;;;;;;4.50;2.70;;;;;;;14.63;100.00;100643.37;107808;1238;60883;-69
2023/06/29 04:50:41;;;;;;;5.90;2.90;;;;;;;14.72;100.00;100644.88;107918;1236;62633;-68
2023/06/29 04:53:12;;;;;;;5.00;2.90;;;;;;;14.81;100.00;100641.33;107916;1244;72429;-69
2023/06/29 04:55:41;;;;;;;4.90;3.30;;;;;;;14.97;100.00;100644.14;107743;1245;59672;-68
2023/06/29 04:58:10;;;;;;;5.10;3.30;;;;;;;15.08;100.00;100640.41;107764;1239;73816;-69
2023/06/29 05:00:39;;;;;;;4.20;2.80;;;;;;;15.21;100.00;100646.13;107724;1239;63158;-69
2023/06/29 05:03:09;;;;;;;4.70;2.50;;;;;;;15.26;100.00;100645.64;107788;1247;61017;-64
2023/06/29 05:05:38;;;;;;;4.60;2.40;;;;;;;15.31;100.00;100642.71;107582;1235;73689;-63
2023/06/29 05:08:07;;;;;;;3.90;2.20;;;;;;;15.38;100.00;100641.02;107876;1238;71693;-63
2023/06/29 05:10:36;;;;;;;4.80;2.40;;;;;;;15.45;100.00;100639.34;107943;1238;69610;-63
2023/06/29 05:13:05;;;;;;;9.50;2.60;;;;;;;15.53;100.00;100637.48;108007;1244;62795;-63
2023/06/29 05:15:34;;;;;;;4.80;2.70;;;;;;;15.62;100.00;100639.77;107927;1239;58860;-63
2023/06/29 05:18:03;;;;;;;5.40;2.80;;;;;;;15.73;100.00;100641.20;108041;1245;58496;-62
2023/06/29 05:20:32;;;;;;;4.70;2.80;;;;;;;15.84;100.00;100640.92;108083;1237;64310;-62
2023/06/29 05:23:01;;;;;;;4.70;3.00;;;;;;;15.92;100.00;100644.31;108031;1235;71490;-71
2023/06/29 05:25:30;;;;;;;7.00;2.70;;;;;;;15.98;100.00;100642.20;108005;1238;70039;-63
2023/06/29 05:27:59;;;;;;;5.20;2.50;;;;;;;16.03;100.00;100644.04;110397;1235;73497;-63
2023/06/29 05:30:29;;;;;;;3.20;2.40;;;;;;;16.11;100.00;100645.63;110286;1234;62606;-62
2023/06/29 05:32:58;;;;;;;6.70;3.00;;;;;;;16.19;100.00;100644.92;110286;1235;61593;-62
2023/06/29 05:35:27;;;;;;;4.40;3.00;;;;;;;16.29;100.00;100640.77;110444;1234;74101;-62
2023/06/29 05:37:55;;;;;;;5.50;2.90;;;;;;;16.37;100.00;100637.55;110453;1235;72305;-62
2023/06/29 05:40:24;;;;;;;4.10;2.70;;;;;;;16.43;100.00;100626.37;110412;1235;59663;-63
2023/06/29 05:42:53;;;;;;;6.50;3.10;;;;;;;16.58;100.00;100631.38;110415;1237;63212;-63
2023/06/29 05:45:22;;;;;;;4.10;2.20;;;;;;;16.76;100.00;100626.25;110252;1238;63682;-62
2023/06/29 05:47:50;;;;;;;5.90;2.80;;;;;;;16.87;100.00;100626.94;110294;1234;60853;-62
2023/06/29 05:50:20;;;;;;;4.50;2.60;;;;;;;17.00;99.93;100626.84;110373;1234;63881;-63
2023/06/29 05:52:49;;;;;;;6.50;2.70;;;;;;;17.13;99.90;100627.32;110464;1235;61711;-62
2023/06/29 05:55:19;;;;;;;8.90;2.30;;;;;;;17.30;98.49;100628.44;110384;1235;70496;-63
2023/06/29 05:57:48;;;;;;;9.30;2.60;;;;;;;17.39;98.38;100629.05;110417;1236;62835;-63
2023/06/29 06:00:18;;;;;;;4.90;2.40;;;;;;;17.49;99.16;100631.02;110450;1235;60260;-63
2023/06/29 06:02:47;;;;;;;4.90;2.30;;;;;;;17.60;97.34;100623.25;110509;1234;60662;-63
2023/06/29 06:05:16;;;;;;;3.70;1.70;;;;;;;17.66;96.40;100629.81;110420;1233;64288;-63
2023/06/29 06:07:45;;;;;;;4.30;2.70;;;;;;;17.79;95.42;100627.98;110530;1235;61731;-62
2023/06/29 06:10:14;;;;;;;2.70;2.00;;;;;;;17.89;92.85;100628.02;110507;1236;59178;-62
2023/06/29 06:12:43;;;;;;;4.10;2.30;;;;;;;17.99;89.82;100619.73;110363;1235;63561;-63
2023/06/29 06:15:14;;;;;;;3.80;2.20;;;;;;;18.07;89.45;100614.33;110246;1238;60552;-64
2023/06/29 06:17:43;;;;;;;2.80;1.90;;;;;;;18.12;88.24;100612.64;110399;1235;60860;-63
2023/06/29 06:20:12;;;;;;;9.50;2.40;;;;;;;18.25;88.25;100617.84;110258;1235;72541;-64
2023/06/29 06:22:41;;;;;;;8.20;2.20;;;;;;;18.39;88.21;100613.23;110416;1235;71873;-62
2023/06/29 06:25:11;;;;;;;5.70;2.30;;;;;;;18.51;84.24;100607.59;110491;1235;60553;-63
2023/06/29 06:27:41;;;;;;;6.20;2.40;;;;;;;18.59;84.44;100608.17;110454;1235;63271;-63
2023/06/29 06:30:10;;;;;;;3.40;1.90;;;;;;;18.67;85.47;100602.41;110194;1238;57694;-63
2023/06/29 06:32:41;;;;;;;4.50;1.90;;;;;;;18.79;84.84;100600.80;110470;1235;57444;-63
2023/06/29 06:35:10;;;;;;;3.70;2.20;;;;;;;18.89;83.18;100597.02;110340;1238;62717;-64
2023/06/29 06:37:39;;;;;;;3.10;1.80;;;;;;;18.96;83.29;100594.98;110328;1238;61598;-62
2023/06/29 06:40:09;;;;;;;2.80;1.80;;;;;;;19.06;82.11;100594.64;110343;1235;60008;-62
2023/06/29 06:42:39;;;;;;;4.00;2.10;;;;;;;19.16;83.13;100592.66;110382;1237;74470;-63
2023/06/29 06:45:08;;;;;;;4.50;1.80;;;;;;;19.31;84.54;100595.07;110316;1234;60097;-65
2023/06/29 06:47:37;;;;;;;4.60;1.90;;;;;;;19.50;84.54;100594.17;110322;1235;58029;-64
2023/06/29 06:50:06;;;;;;;6.20;1.70;;;;;;;19.65;78.69;100596.32;110477;1235;62699;-64
2023/06/29 06:52:35;;;;;;;4.30;2.10;;;;;;;19.68;74.20;100596.73;110391;1234;61598;-64
2023/06/29 06:55:05;;;;;;;4.00;1.90;;;;;;;19.74;71.98;100589.73;110587;1235;60048;-64
2023/06/29 06:57:34;;;;;;;3.30;1.90;;;;;;;19.80;71.48;100589.23;110539;1234;63176;-64
2023/06/29 07:00:04;;;;;;;3.20;1.90;;;;;;;19.88;71.24;100582.13;110446;1234;57649;-64
2023/06/29 07:02:33;;;;;;;3.30;1.90;;;;;;;20.06;69.05;100580.27;110344;1236;57125;-64
2023/06/29 07:05:02;;;;;;;3.00;1.70;;;;;;;20.18;66.99;100579.92;110482;1235;61965;-64
2023/06/29 07:07:31;;;;;;;2.80;1.70;;;;;;;20.36;68.50;100579.25;110396;1235;71942;-64
2023/06/29 07:10:00;;;;;;;2.20;1.40;;;;;;;20.66;65.89;100583.89;110435;1235;70797;-63
2023/06/29 07:12:29;;;;;;;4.00;1.40;;;;;;;20.89;63.22;100579.39;110400;1235;62675;-63
2023/06/29 07:14:58;;;;;;;2.50;1.40;;;;;;;21.02;62.09;100573.70;110392;1237;57647;-63
2023/06/29 07:17:27;;;;;;;3.60;1.60;;;;;;;21.09;60.69;100581.96;110416;1233;59488;-63
2023/06/29 07:19:56;;;;;;;1.50;1.00;;;;;;;21.13;61.44;100590.15;110410;1237;62609;-63
2023/06/29 07:22:28;;;;;;;3.30;1.40;;;;;;;21.34;59.23;100589.98;110546;1236;60644;-63
2023/06/29 07:25:00;;;;;;;4.60;1.60;;;;;;;21.47;59.35;100577.16;110510;1234;70254;-64
2023/06/29 07:27:29;;;;;;;1.90;1.10;;;;;;;21.45;59.41;100584.45;110437;1236;64405;-64
2023/06/29 07:29:58;;;;;;;3.90;1.50;;;;;;;21.38;58.33;100596.48;110428;1236;61042;-64
2023/06/29 07:32:27;;;;;;;2.30;1.40;;;;;;;21.26;58.64;100600.41;110432;1235;60453;-64
2023/06/29 07:34:56;;;;;;;1.40;1.10;;;;;;;21.20;58.75;100599.69;110287;1235;73876;-64
2023/06/29 07:37:25;;;;;;;3.00;1.50;;;;;;;21.11;59.47;100598.79;110292;1236;62100;-64
2023/06/29 07:39:54;;;;;;;2.90;1.30;;;;;;;21.16;59.72;100592.29;110303;1236;68197;-64
2023/06/29 07:42:23;;;;;;;1.40;1.10;;;;;;;21.28;59.70;100588.33;110184;1238;73863;-64
2023/06/29 07:45:07;;;;;;;2.60;1.20;;;;;;;21.44;59.48;100595.23;110302;1236;57998;-65
2023/06/29 07:47:36;;;;;;;2.90;1.30;;;;;;;21.55;58.89;100597.99;110197;1235;60449;-65
2023/06/29 07:50:05;;;;;;;2.60;1.20;;;;;;;21.45;59.04;100600.64;110187;1235;73184;-64
2023/06/29 07:52:34;;;;;;;1.50;1.10;;;;;;;21.36;58.84;100605.22;110340;1235;72468;-64
2023/06/29 07:55:04;;;;;;;3.60;1.50;;;;;;;21.29;59.40;100599.31;110207;1233;60302;-64
2023/06/29 07:57:32;;;;;;;2.30;1.20;;;;;;;21.36;59.40;100605.11;110382;1235;72975;-65
2023/06/29 08:00:06;;;;;;;2.30;1.10;;;;;;;21.36;59.78;100596.38;110428;1236;57765;-65
2023/06/29 08:02:46;;;;;;;1.90;0.80;;;;;;;21.28;59.27;100606.90;110448;1236;57238;-66
2023/06/29 08:05:16;;;;;;;1.00;0.60;;;;;;;21.19;59.63;100602.95;110339;1235;73509;-65
2023/06/29 08:07:49;;;;;;;1.30;0.80;;;;;;;21.14;60.01;100606.70;110451;1235;71564;-65
2023/06/29 08:10:19;;;;;;;1.30;0.70;;;;;;;21.34;59.38;100599.63;110419;1235;69893;-66
2023/06/29 08:12:49;;;;;;;0.60;0.60;;;;;;;21.39;60.10;100610.33;110490;1236;73610;-65
2023/06/29 08:15:18;;;;;;;0.80;0.80;;;;;;;21.30;60.02;100613.31;110256;1238;57524;-66
2023/06/29 08:17:47;;;;;;;2.20;0.80;;;;;;;21.28;60.57;100601.25;110507;1235;57111;-64
2023/06/29 08:20:16;;;;;;;1.30;0.60;;;;;;;21.38;60.65;100601.45;110514;1234;74169;-64
2023/06/29 08:22:47;;;;;;;2.10;0.70;;;;;;;21.43;59.67;100608.63;110364;1235;73213;-64
2023/06/29 08:25:16;;;;;;;1.80;0.80;;;;;;;21.33;59.46;100605.55;110316;1234;70731;-64
2023/06/29 08:27:45;;;;;;;1.70;1.00;;;;;;;21.60;60.31;100599.45;110344;1235;73039;-65
2023/06/29 08:30:13;;;;;;;1.30;0.80;;;;;;;21.85;59.20;100613.41;110449;1236;61609;-64
2023/06/29 08:32:43;;;;;;;0.80;0.80;;;;;;;21.81;59.13;100594.27;110347;1236;62801;-65
2023/06/29 08:35:12;;;;;;;1.30;0.80;;;;;;;22.03;59.65;100592.45;110239;1238;63417;-64
2023/06/29 08:37:41;;;;;;;2.60;0.90;;;;;;;22.12;59.35;100592.02;110188;1237;60830;-64
2023/06/29 08:40:12;;;;;;;2.10;0.80;;;;;;;22.30;60.17;100589.73;110041;1234;71151;-64
2023/06/29 08:42:42;;;;;;;1.70;0.90;;;;;;;22.43;59.45;100595.26;110237;1235;74346;-65
2023/06/29 08:45:11;;;;;;;1.60;0.90;;;;;;;22.35;58.32;100590.61;110237;1237;57638;-64
2023/06/29 08:47:41;;;;;;;2.30;1.00;;;;;;;22.33;59.01;100600.45;110427;1235;57602;-64
2023/06/29 08:50:10;;;;;;;4.80;0.70;;;;;;;22.22;58.76;100598.16;110358;1238;63789;-65
2023/06/29 08:52:40;;;;;;;1.80;0.90;;;;;;;21.99;59.53;100594.52;110285;1238;62591;-66
2023/06/29 08:55:09;;;;;;;1.40;0.80;;;;;;;22.08;59.45;100602.72;110296;1235;69258;-68
2023/06/29 08:57:39;;;;;;;2.70;1.10;;;;;;;22.17;59.21;100593.53;110379;1237;62865;-68
2023/06/29 09:00:09;;;;;;;2.40;0.90;;;;;;;22.19;59.05;100600.43;110374;1237;60511;-68
2023/06/29 09:02:38;;;;;;;2.50;1.20;;;;;;;22.30;60.06;100597.71;110469;1235;60184;-68
2023/06/29 09:05:08;;;;;;;5.60;1.10;;;;;;;22.43;60.14;100598.02;110063;1235;74541;-67
2023/06/29 09:07:39;;;;;;;1.30;1.00;;;;;;;22.41;59.94;100603.59;110393;1235;61516;-68
2023/06/29 09:10:11;;;;;;;1.60;1.10;;;;;;;22.48;60.08;100601.11;110425;1235;70153;-68
2023/06/29 09:12:40;;;;;;;2.10;1.00;;;;;;;22.55;60.21;100596.67;110387;1235;75008;-68
2023/06/29 09:15:10;;;;;;;2.10;1.00;;;;;;;22.53;60.45;100600.84;110379;1236;60751;-68
2023/06/29 09:17:45;;;;;;;2.00;0.90;;;;;;;22.43;60.53;100608.64;110282;1235;57581;-66
2023/06/29 09:20:15;;;;;;;2.20;1.10;;;;;;;22.45;60.44;100600.97;110262;1235;74464;-67
2023/06/29 09:22:49;;;;;;;3.70;1.20;;;;;;;22.44;60.84;100617.05;110460;1237;72649;-67
2023/06/29 09:25:20;;;;;;;4.70;1.10;;;;;;;22.34;60.64;100609.75;110449;1235;60225;-65
2023/06/29 09:28:06;;;;;;;2.80;0.90;;;;;;;22.29;61.19;100603.36;110314;1238;63320;-66
2023/06/29 09:30:41;;;;;;;4.00;1.10;;;;;;;22.19;61.50;100610.39;110103;1239;58949;-67
2023/06/29 09:33:12;;;;;;;2.60;1.20;;;;;;;22.12;61.74;100603.02;110484;1235;61254;-67
2023/06/29 09:35:53;;;;;;;2.50;1.10;;;;;;;21.95;62.75;100598.55;110397;1235;72195;-67
2023/06/29 09:38:22;;;;;;;3.00;1.20;;;;;;;21.81;63.57;100605.41;110335;1235;61526;-69
2023/06/29 09:40:53;;;;;;;4.40;1.20;;;;;;;21.67;64.54;100606.17;110461;1235;69485;-65
2023/06/29 09:43:27;;;;;;;3.60;1.10;;;;;;;21.57;65.03;100607.86;110297;1235;74186;-67
2023/06/29 09:46:02;;;;;;;1.70;0.80;;;;;;;21.43;64.78;100615.38;110499;1235;57350;-67
2023/06/29 09:48:31;;;;;;;1.50;1.10;;;;;;;21.19;65.56;100613.25;110388;1234;57591;-67
2023/06/29 09:51:04;;;;;;;1.70;1.10;;;;;;;20.87;66.79;100612.05;110167;1239;73512;-66
2023/06/29 09:53:33;;;;;;;2.20;1.10;;;;;;;20.71;67.52;100607.23;110373;1235;72553;-70
2023/06/29 09:56:03;;;;;;;1.50;1.10;;;;;;;20.73;67.14;100609.27;110395;1234;60489;-64
2023/06/29 09:58:32;;;;;;;1.20;0.90;;;;;;;20.72;67.10;100610.13;110272;1235;73519;-64
2023/06/29 10:01:01;;;;;;;2.10;1.20;;;;;;;20.71;67.53;100611.97;110276;1236;57677;-64
2023/06/29 10:03:33;;;;;;;2.40;0.90;;;;;;;20.67;67.96;100611.05;110389;1235;57679;-64
2023/06/29 10:06:11;;;;;;;1.70;0.90;;;;;;;20.67;68.14;100607.80;110301;1238;72681;-65
2023/06/29 10:08:42;;;;;;;2.70;0.90;;;;;;;20.62;68.64;100611.83;110281;1236;72601;-62
2023/06/29 10:11:12;;;;;;;5.40;1.30;;;;;;;20.57;69.49;100613.45;110291;1235;59589;-64
2023/06/29 10:13:47;;;;;;;1.90;1.10;;;;;;;20.66;69.00;100615.37;110372;1235;73154;-64
2023/06/29 10:16:21;;;;;;;1.60;1.10;;;;;;;20.61;69.18;100610.69;110264;1238;62117;-63
2023/06/29 10:19:01;;;;;;;4.00;1.30;;;;;;;20.67;68.82;100613.17;110317;1235;62360;-64
2023/06/29 10:21:30;;;;;;;3.80;1.10;;;;;;;20.66;69.39;100616.54;110525;1235;73331;-63
2023/06/29 10:24:00;;;;;;;1.90;1.30;;;;;;;20.78;69.25;100617.73;110552;1234;72468;-64
2023/06/29 10:26:29;;;;;;;2.80;1.30;;;;;;;20.87;67.62;100620.73;110539;1234;59497;-64
2023/06/29 10:28:58;;;;;;;2.30;1.20;;;;;;;20.83;67.34;100619.73;110549;1234;62404;-63
2023/06/29 10:31:33;;;;;;;2.20;1.40;;;;;;;20.83;67.06;100614.79;110562;1236;57610;-66
2023/06/29 10:34:07;;;;;;;2.70;1.30;;;;;;;20.86;66.25;100617.83;110423;1235;61119;-65
2023/06/29 10:36:50;;;;;;;6.90;1.70;;;;;;;20.86;66.14;100620.11;110251;1234;72466;-62
2023/06/29 10:39:37;;;;;;;;;;;;;;;20.89;66.10;100615.14;110434;1235;64018;-65
2023/06/29 10:42:26;;;;;;;2.20;1.40;;;;;;;20.91;66.54;100616.21;110577;1233;69915;-63
2023/06/29 10:44:55;;;;;;;1.90;1.30;;;;;;;21.05;66.24;100617.67;110398;1234;63998;-63
2023/06/29 10:47:31;;;;;;;4.40;1.30;;;;;;;21.19;65.96;100614.47;110561;1236;58079;-63
2023/06/29 10:50:13;;;;;;;1.90;1.30;;;;;;;21.46;65.20;100617.32;110454;1234;57203;-63
2023/06/29 10:52:43;;;;;;;5.70;2.00;;;;;;;21.66;64.71;100612.41;110597;1233;62935;-63
2023/06/29 10:55:14;;;;;;;3.20;1.90;;;;;;;21.86;64.11;100608.88;110441;1234;61690;-63
2023/06/29 10:57:48;;;;;;;2.00;1.30;;;;;;;22.05;62.94;100609.73;110548;1233;71016;-64
2023/06/29 11:00:18;;;;;;;1.70;1.20;;;;;;;22.23;63.08;100611.69;110268;1234;73868;-63
2023/06/29 11:02:48;;;;;;;3.30;1.20;;;;;;;22.31;61.94;100610.55;110416;1236;61660;-63
2023/06/29 11:05:19;;;;;;;2.40;1.20;;;;;;;22.37;61.35;100607.94;110380;1235;57675;-63
2023/06/29 11:07:51;;;;;;;3.10;1.40;;;;;;;22.32;61.87;100607.23;110251;1233;62734;-64
2023/06/29 11:10:22;;;;;;;2.00;1.30;;;;;;;22.49;61.19;100605.19;110410;1234;71328;-65
2023/06/29 11:12:54;;;;;;;3.20;1.30;;;;;;;22.59;61.61;100604.73;110097;1234;70290;-64
2023/06/29 11:15:23;;;;;;;2.20;1.60;;;;;;;22.77;61.94;100608.33;110379;1234;74367;-64
2023/06/29 11:17:53;;;;;;;2.20;1.50;;;;;;;22.91;60.54;100599.11;110221;1238;57729;-64
2023/06/29 11:20:28;;;;;;;1.90;1.40;;;;;;;23.09;59.83;100605.10;110116;1235;57688;-64
2023/06/29 11:22:57;;;;;;;2.10;1.40;;;;;;;23.10;59.63;100601.13;110388;1235;72731;-65
2023/06/29 11:25:28;;;;;;;2.80;1.60;;;;;;;23.09;59.38;100597.11;110261;1234;61417;-66
2023/06/29 11:27:58;;;;;;;2.40;1.20;;;;;;;23.27;60.16;100592.70;110116;1234;59958;-65